Time;durP1;ratioP1;P1;durP2;ratioP2;P2;SDS_P1;SDS_P2;PMS_P1;PMS_P2;Temp;Humidity;BMP_temperature;BMP_pressure;BME280_temperature;BME280_humidity;BME280_pressure;Samples;Min_cycle;Max_cycle;Signal;HPM_P1;HPM_P2
2023/05/13 00:02:07;;;;;;;11.30;5.70;;;;;;;10.24;100.00;99883.48;109303;1252;243720;-66
2023/05/13 00:04:34;;;;;;;7.20;5.00;;;;;;;10.23;100.00;99883.23;109470;1253;74051;-66
2023/05/13 00:07:00;;;;;;;12.80;6.00;;;;;;;10.22;100.00;99886.62;109516;1252;60445;-66
2023/05/13 00:09:27;;;;;;;6.50;5.50;;;;;;;10.20;100.00;99888.30;109429;1252;60509;-68
2023/05/13 00:11:54;;;;;;;10.80;5.80;;;;;;;10.14;100.00;99890.30;109527;1251;74469;-68
2023/05/13 00:14:21;;;;;;;11.10;6.10;;;;;;;10.07;100.00;99889.23;109515;1251;70196;-67
2023/05/13 00:16:48;;;;;;;10.20;6.10;;;;;;;10.04;100.00;99888.50;109436;1252;73640;-66
2023/05/13 00:19:14;;;;;;;9.60;6.40;;;;;;;10.06;100.00;99887.46;109507;1252;62887;-67
2023/05/13 00:21:41;;;;;;;7.40;6.20;;;;;;;10.09;100.00;99886.55;109448;1252;61388;-67
2023/05/13 00:24:08;;;;;;;14.10;6.90;;;;;;;10.11;100.00;99884.63;109364;1252;72864;-67
2023/05/13 00:26:35;;;;;;;10.80;6.10;;;;;;;10.12;100.00;99883.23;109584;1252;69965;-67
2023/05/13 00:29:01;;;;;;;10.20;7.30;;;;;;;10.14;100.00;99885.55;109371;1252;74022;-67
2023/05/13 00:31:28;;;;;;;11.40;7.00;;;;;;;10.16;100.00;99887.88;109430;1252;61042;-67
2023/05/13 00:33:55;;;;;;;10.60;7.70;;;;;;;10.17;100.00;99890.91;109552;1252;62660;-67
2023/05/13 00:36:22;;;;;;;9.70;8.20;;;;;;;10.18;100.00;99891.16;109498;1253;75354;-66
2023/05/13 00:38:49;;;;;;;11.80;8.30;;;;;;;10.20;100.00;99892.26;109476;1252;69311;-69
2023/05/13 00:41:16;;;;;;;12.50;8.40;;;;;;;10.18;100.00;99894.88;109470;1252;73148;-67
2023/05/13 00:43:43;;;;;;;11.80;6.80;;;;;;;10.15;100.00;99890.46;109227;1253;61256;-68
2023/05/13 00:46:09;;;;;;;11.80;8.20;;;;;;;10.07;100.00;99895.64;109269;1253;59329;-70
2023/05/13 00:48:37;;;;;;;10.70;8.00;;;;;;;10.01;100.00;99895.73;109327;1252;74637;-71
2023/05/13 00:51:04;;;;;;;11.40;7.70;;;;;;;9.98;100.00;99903.74;109206;1253;69856;-68
2023/05/13 00:53:31;;;;;;;11.20;8.90;;;;;;;9.94;100.00;99898.90;109414;1252;74646;-67
2023/05/13 00:55:59;;;;;;;12.90;10.00;;;;;;;9.92;100.00;99897.34;109506;1252;60337;-66
2023/05/13 00:58:25;;;;;;;17.00;13.10;;;;;;;9.91;100.00;99895.47;109534;1251;59528;-67
2023/05/13 01:00:52;;;;;;;20.40;14.60;;;;;;;9.91;100.00;99897.99;109519;1252;75027;-68
2023/05/13 01:03:57;;;;;;;18.70;15.00;;;;;;;9.92;100.00;99896.42;109521;1252;67629;-67
2023/05/13 01:07:00;;;;;;;25.00;15.10;;;;;;;9.95;100.00;99893.70;109408;1252;74087;-67
2023/05/13 01:09:52;;;;;;;23.10;15.30;;;;;;;9.96;100.00;99892.88;109284;1253;61299;-66
2023/05/13 01:12:26;;;;;;;21.70;15.50;;;;;;;9.98;100.00;99894.81;109340;1252;62016;-65
2023/05/13 01:15:04;;;;;;;24.30;15.00;;;;;;;10.00;100.00;99894.60;109328;1253;73102;-68
2023/05/13 01:17:52;;;;;;;20.30;15.10;;;;;;;10.02;100.00;99890.66;109415;1252;69060;-69
2023/05/13 01:20:20;;;;;;;27.20;16.40;;;;;;;10.05;100.00;99895.19;109192;1257;71451;-68
2023/05/13 01:22:47;;;;;;;18.90;14.10;;;;;;;10.06;100.00;99895.05;109418;1251;59442;-67
2023/05/13 01:25:15;;;;;;;21.40;14.60;;;;;;;10.06;100.00;99891.88;109576;1252;61047;-66
2023/05/13 01:27:42;;;;;;;20.00;14.60;;;;;;;10.07;100.00;99891.77;109424;1253;74685;-66
2023/05/13 01:30:10;;;;;;;17.00;13.30;;;;;;;10.09;100.00;99891.04;109482;1251;67773;-68
2023/05/13 01:32:37;;;;;;;15.00;11.60;;;;;;;10.11;100.00;99891.71;109255;1253;74207;-67
2023/05/13 01:35:04;;;;;;;16.50;11.40;;;;;;;10.13;100.00;99892.91;109578;1252;61438;-66
2023/05/13 01:37:31;;;;;;;16.00;10.90;;;;;;;10.16;100.00;99893.86;109461;1251;61685;-67
2023/05/13 01:39:58;;;;;;;14.30;11.40;;;;;;;10.19;100.00;99890.69;109218;1252;74647;-68
2023/05/13 01:42:28;;;;;;;14.50;11.40;;;;;;;10.21;100.00;99891.21;109431;1252;69323;-68
2023/05/13 01:44:54;;;;;;;16.80;11.60;;;;;;;10.23;99.98;99893.27;109527;1252;73232;-68
2023/05/13 01:47:21;;;;;;;15.70;11.00;;;;;;;10.26;99.40;99892.09;109459;1253;61697;-68
2023/05/13 01:49:49;;;;;;;14.30;11.00;;;;;;;10.28;98.95;99889.34;109512;1253;59966;-68
2023/05/13 01:52:15;;;;;;;11.70;10.20;;;;;;;10.30;98.38;99891.11;109400;1251;73994;-67
2023/05/13 01:54:42;;;;;;;12.00;9.30;;;;;;;10.32;97.68;99888.10;109475;1252;67370;-67
2023/05/13 01:57:11;;;;;;;11.80;9.80;;;;;;;10.36;96.63;99886.33;109589;1252;74615;-66
2023/05/13 01:59:38;;;;;;;13.20;9.40;;;;;;;10.38;95.73;99887.07;109425;1252;61230;-66
2023/05/13 02:02:05;;;;;;;13.00;9.70;;;;;;;10.42;95.14;99887.61;109469;1253;61172;-66
2023/05/13 02:04:32;;;;;;;12.20;10.00;;;;;;;10.44;94.78;99887.02;109551;1252;76009;-68
2023/05/13 02:06:59;;;;;;;19.70;10.20;;;;;;;10.46;94.43;99883.65;109469;1252;69133;-69
2023/05/13 02:09:28;;;;;;;11.70;10.10;;;;;;;10.48;94.00;99888.05;109521;1252;74018;-67
2023/05/13 02:11:55;;;;;;;14.20;9.40;;;;;;;10.49;93.87;99885.62;109488;1252;59119;-68
2023/05/13 02:14:21;;;;;;;12.50;10.40;;;;;;;10.48;94.51;99887.23;109512;1251;60300;-66
2023/05/13 02:16:48;;;;;;;15.70;11.20;;;;;;;10.46;97.17;99889.34;109540;1252;75617;-68
2023/05/13 02:19:15;;;;;;;12.00;10.50;;;;;;;10.40;97.85;99891.30;109479;1253;67103;-66
2023/05/13 02:21:42;;;;;;;16.70;11.10;;;;;;;10.35;97.55;99894.14;109412;1252;74954;-67
2023/05/13 02:24:09;;;;;;;12.90;10.50;;;;;;;10.30;97.90;99896.78;109305;1255;60490;-65
2023/05/13 02:26:37;;;;;;;12.60;10.10;;;;;;;10.26;97.36;99899.51;109537;1252;62375;-66
2023/05/13 02:29:04;;;;;;;14.20;11.20;;;;;;;10.26;97.80;99899.58;109291;1253;75107;-67
2023/05/13 02:31:30;;;;;;;12.50;10.60;;;;;;;10.25;97.93;99902.45;109368;1252;68162;-67
2023/05/13 02:33:58;;;;;;;12.00;9.90;;;;;;;10.25;98.05;99901.09;109471;1251;71381;-68
2023/05/13 02:36:25;;;;;;;16.10;11.20;;;;;;;10.26;98.16;99902.61;109520;1252;61727;-67
2023/05/13 02:38:52;;;;;;;15.40;10.00;;;;;;;10.25;98.37;99901.20;109487;1252;61668;-65
2023/05/13 02:41:18;;;;;;;11.80;9.30;;;;;;;10.24;99.84;99902.56;109509;1252;72530;-66
2023/05/13 02:43:46;;;;;;;12.70;8.40;;;;;;;10.23;99.89;99903.38;109388;1253;69763;-67
2023/05/13 02:46:14;;;;;;;10.40;8.20;;;;;;;10.24;99.52;99903.34;109393;1253;73714;-67
2023/05/13 02:48:42;;;;;;;10.80;7.80;;;;;;;10.27;98.72;99905.86;109457;1253;61439;-66
2023/05/13 02:51:09;;;;;;;12.20;8.10;;;;;;;10.32;97.91;99905.51;109478;1253;61569;-66
2023/05/13 02:53:37;;;;;;;13.20;9.80;;;;;;;10.32;100.00;99907.27;109517;1253;73706;-66
2023/05/13 02:56:05;;;;;;;11.80;8.10;;;;;;;10.21;100.00;99910.91;109482;1252;67892;-66
2023/05/13 02:58:33;;;;;;;13.70;9.10;;;;;;;10.10;100.00;99907.73;109433;1253;72931;-66
2023/05/13 03:01:00;;;;;;;11.00;9.90;;;;;;;10.05;100.00;99910.78;109484;1253;61728;-67
2023/05/13 03:03:28;;;;;;;12.50;8.80;;;;;;;10.05;100.00;99913.77;109420;1252;62622;-66
2023/05/13 03:05:55;;;;;;;14.10;7.60;;;;;;;10.05;100.00;99912.67;109372;1252;74667;-65
2023/05/13 03:08:22;;;;;;;12.10;7.70;;;;;;;10.07;100.00;99907.77;109313;1253;68937;-65
2023/05/13 03:10:50;;;;;;;13.00;7.70;;;;;;;10.08;100.00;99907.38;109489;1252;74509;-66
2023/05/13 03:13:16;;;;;;;11.50;8.00;;;;;;;10.09;100.00;99906.41;109526;1252;61427;-68
2023/05/13 03:15:43;;;;;;;11.40;8.60;;;;;;;10.11;100.00;99905.67;109545;1251;61237;-66
2023/05/13 03:18:10;;;;;;;20.00;8.20;;;;;;;10.18;100.00;99906.42;109410;1252;72256;-66
2023/05/13 03:20:37;;;;;;;17.40;8.60;;;;;;;10.28;100.00;99903.77;109480;1252;66338;-67
2023/05/13 03:23:04;;;;;;;12.60;9.10;;;;;;;10.40;100.00;99904.23;109525;1257;71150;-67
2023/05/13 03:25:31;;;;;;;16.60;8.60;;;;;;;10.56;100.00;99904.90;109487;1253;60831;-66
2023/05/13 03:27:58;;;;;;;14.20;9.60;;;;;;;10.74;100.00;99901.63;109445;1252;62648;-67
2023/05/13 03:30:27;;;;;;;12.40;7.50;;;;;;;10.93;100.00;99902.94;109415;1252;73873;-67
2023/05/13 03:33:02;;;;;;;13.20;7.50;;;;;;;11.16;100.00;99901.26;109433;1253;70521;-67
2023/05/13 03:35:29;;;;;;;10.60;7.50;;;;;;;11.41;100.00;99900.06;109278;1252;72961;-66
2023/05/13 03:37:56;;;;;;;10.30;6.80;;;;;;;11.65;100.00;99902.95;109349;1254;62496;-68
2023/05/13 03:40:23;;;;;;;9.50;7.80;;;;;;;11.89;100.00;99903.65;109351;1253;60105;-67
2023/05/13 03:42:50;;;;;;;11.40;7.40;;;;;;;12.16;100.00;99904.40;109479;1252;75938;-67
2023/05/13 03:45:17;;;;;;;14.20;8.60;;;;;;;12.44;100.00;99906.40;109476;1252;69937;-66
2023/05/13 03:47:46;;;;;;;20.50;7.10;;;;;;;12.77;100.00;99909.30;109422;1252;75114;-66
2023/05/13 03:50:14;;;;;;;12.20;6.50;;;;;;;13.12;100.00;99907.97;109419;1253;62678;-66
2023/05/13 03:52:42;;;;;;;11.20;6.70;;;;;;;13.43;100.00;99909.15;109316;1253;62548;-67
2023/05/13 03:55:13;;;;;;;13.60;7.60;;;;;;;13.76;100.00;99907.21;109130;1252;74368;-67
2023/05/13 03:57:43;;;;;;;18.00;7.70;;;;;;;14.14;100.00;99909.87;109290;1252;70267;-65
2023/05/13 04:00:11;;;;;;;15.40;7.70;;;;;;;14.47;99.59;99906.86;109338;1253;74032;-66
2023/05/13 04:02:41;;;;;;;13.20;7.20;;;;;;;14.80;97.37;99909.84;109395;1256;62412;-66
2023/05/13 04:05:09;;;;;;;11.60;7.00;;;;;;;15.11;94.46;99907.17;109319;1252;59315;-66
2023/05/13 04:07:36;;;;;;;13.40;8.40;;;;;;;15.42;91.37;99906.40;109554;1252;74842;-66
2023/05/13 04:10:03;;;;;;;19.10;9.10;;;;;;;15.73;88.88;99906.44;109559;1252;69698;-67
2023/05/13 04:12:32;;;;;;;16.30;7.90;;;;;;;16.06;86.75;99904.35;109471;1252;73991;-66
2023/05/13 04:14:59;;;;;;;11.20;7.60;;;;;;;16.44;84.97;99907.88;109456;1252;60826;-67
2023/05/13 04:17:26;;;;;;;15.50;7.60;;;;;;;16.82;83.02;99907.73;109486;1252;62134;-68
2023/05/13 04:19:53;;;;;;;12.70;7.70;;;;;;;17.20;81.04;99907.95;109412;1253;73593;-66
2023/05/13 04:22:20;;;;;;;11.70;7.60;;;;;;;17.56;79.86;99909.59;109534;1252;69821;-68
2023/05/13 04:24:50;;;;;;;15.30;7.60;;;;;;;17.95;79.20;99908.25;109539;1252;72598;-67
2023/05/13 04:27:17;;;;;;;13.70;7.60;;;;;;;18.35;77.95;99907.89;109506;1252;61013;-67
2023/05/13 04:29:44;;;;;;;10.30;7.60;;;;;;;18.75;75.97;99907.69;109552;1251;61562;-68
2023/05/13 04:32:14;;;;;;;12.80;7.60;;;;;;;19.20;74.24;99908.13;109509;1253;76006;-68
2023/05/13 04:34:42;;;;;;;10.70;7.60;;;;;;;19.70;71.18;99905.48;109474;1252;70208;-66
2023/05/13 04:37:09;;;;;;;13.30;7.70;;;;;;;20.14;67.55;99905.04;109449;1252;73988;-67
2023/05/13 04:39:35;;;;;;;13.20;7.10;;;;;;;20.52;62.85;99908.30;109581;1251;60313;-67
2023/05/13 04:42:02;;;;;;;7.20;6.40;;;;;;;20.93;59.25;99904.80;109450;1252;62548;-67
2023/05/13 04:44:32;;;;;;;19.60;7.40;;;;;;;21.35;54.71;99909.91;109475;1252;72526;-67
2023/05/13 04:46:58;;;;;;;14.20;7.10;;;;;;;21.85;52.74;99910.89;109527;1251;69895;-67
2023/05/13 04:49:25;;;;;;;12.30;7.20;;;;;;;22.31;51.37;99911.15;109478;1252;71740;-67
2023/05/13 04:51:52;;;;;;;9.90;6.90;;;;;;;22.86;48.94;99907.52;109437;1252;62448;-66
2023/05/13 04:54:20;;;;;;;12.30;7.30;;;;;;;23.37;46.81;99910.11;109505;1252;60227;-67
2023/05/13 04:56:47;;;;;;;16.80;6.50;;;;;;;23.91;45.30;99910.89;109420;1252;73855;-68
2023/05/13 04:59:13;;;;;;;9.40;6.80;;;;;;;24.50;43.29;99907.77;109538;1252;69317;-67
2023/05/13 05:01:40;;;;;;;9.80;6.70;;;;;;;25.08;41.03;99909.38;109552;1251;75789;-67
2023/05/13 05:04:07;;;;;;;10.00;6.20;;;;;;;25.58;38.82;99908.75;109504;1251;60757;-65
2023/05/13 05:06:35;;;;;;;8.50;6.50;;;;;;;26.02;37.56;99907.29;109569;1252;59073;-64
2023/05/13 05:09:02;;;;;;;7.60;6.40;;;;;;;26.37;36.57;99909.42;109613;1252;72752;-67
2023/05/13 05:11:29;;;;;;;14.00;7.30;;;;;;;26.66;35.51;99909.02;109497;1253;70644;-65
2023/05/13 05:13:56;;;;;;;7.30;6.40;;;;;;;26.87;34.55;99907.08;109506;1253;73468;-69
2023/05/13 05:16:23;;;;;;;6.10;5.50;;;;;;;27.08;33.67;99909.56;109483;1252;62575;-66
2023/05/13 05:18:49;;;;;;;11.90;6.70;;;;;;;27.32;32.17;99910.30;109487;1251;61447;-66
2023/05/13 05:21:17;;;;;;;8.10;6.40;;;;;;;27.50;31.07;99911.24;109416;1252;76067;-68
2023/05/13 05:23:44;;;;;;;8.60;6.70;;;;;;;27.65;30.68;99915.64;109524;1252;69799;-66
2023/05/13 05:26:11;;;;;;;7.10;5.80;;;;;;;27.78;29.73;99919.27;109529;1252;73457;-69
2023/05/13 05:28:41;;;;;;;6.70;5.90;;;;;;;28.01;29.53;99915.23;109381;1253;61991;-69
2023/05/13 05:31:08;;;;;;;14.80;5.90;;;;;;;28.24;29.07;99917.17;109568;1252;60433;-68
2023/05/13 05:33:35;;;;;;;6.00;5.40;;;;;;;28.58;28.86;99918.88;109441;1253;76179;-65
2023/05/13 05:36:04;;;;;;;7.70;5.10;;;;;;;28.92;28.60;99917.09;109428;1251;70002;-65
2023/05/13 05:38:31;;;;;;;6.40;4.70;;;;;;;29.22;27.62;99914.23;109363;1252;73705;-64
2023/05/13 05:40:59;;;;;;;6.20;5.00;;;;;;;29.46;27.06;99913.79;109440;1253;58810;-67
2023/05/13 05:43:26;;;;;;;4.90;4.50;;;;;;;29.71;26.70;99915.81;109351;1253;60877;-67
2023/05/13 05:45:53;;;;;;;6.70;4.50;;;;;;;30.08;26.42;99915.00;109511;1251;75303;-67
2023/05/13 05:48:20;;;;;;;8.00;4.70;;;;;;;30.38;26.17;99913.36;109473;1252;69569;-67
2023/05/13 05:50:48;;;;;;;6.10;4.20;;;;;;;30.74;25.77;99912.65;109489;1252;74796;-66
2023/05/13 05:53:21;;;;;;;12.40;4.00;;;;;;;31.17;24.70;99911.17;109452;1253;60419;-67
2023/05/13 05:55:48;;;;;;;4.70;3.50;;;;;;;31.42;23.91;99909.25;109396;1251;61018;-65
2023/05/13 05:58:17;;;;;;;7.20;3.50;;;;;;;31.57;23.27;99907.67;109327;1252;75345;-65
2023/05/13 06:00:44;;;;;;;4.90;4.00;;;;;;;31.70;23.65;99912.13;109307;1254;70181;-66
2023/05/13 06:03:11;;;;;;;7.60;4.20;;;;;;;31.88;23.40;99910.71;109332;1252;72876;-67
2023/05/13 06:05:38;;;;;;;4.60;3.60;;;;;;;31.98;23.12;99912.69;109418;1253;61771;-67
2023/05/13 06:08:05;;;;;;;5.30;4.00;;;;;;;32.09;23.04;99913.41;109497;1252;61930;-66
2023/05/13 06:10:32;;;;;;;3.30;2.20;;;;;;;32.38;21.98;99910.96;109524;1252;75786;-68
2023/05/13 06:12:59;;;;;;;4.80;2.10;;;;;;;32.58;20.25;99907.55;109536;1252;68835;-68
2023/05/13 06:15:27;;;;;;;2.90;2.40;;;;;;;32.75;19.26;99909.80;109498;1253;74062;-67
2023/05/13 06:17:54;;;;;;;4.90;2.10;;;;;;;32.92;18.99;99908.17;109486;1252;58662;-68
2023/05/13 06:20:21;;;;;;;3.60;2.30;;;;;;;33.09;18.40;99905.99;109444;1252;59942;-66
2023/05/13 06:22:49;;;;;;;4.70;2.20;;;;;;;33.09;17.86;99911.61;109386;1252;76115;-69
2023/05/13 06:25:16;;;;;;;5.00;2.20;;;;;;;33.04;17.51;99910.38;109501;1253;70300;-67
2023/05/13 06:27:43;;;;;;;3.40;1.90;;;;;;;33.04;17.31;99916.72;109486;1253;74477;-66
2023/05/13 06:30:10;;;;;;;4.70;2.30;;;;;;;33.10;16.94;99914.73;109473;1251;62331;-66
2023/05/13 06:32:40;;;;;;;8.40;2.40;;;;;;;32.94;16.60;99917.84;109326;1253;61568;-67
2023/05/13 06:35:23;;;;;;;5.00;2.30;;;;;;;32.78;16.61;99915.73;109340;1252;74640;-68
2023/05/13 06:37:50;;;;;;;7.40;2.40;;;;;;;32.79;16.73;99913.34;109505;1252;68106;-68
2023/05/13 06:40:16;;;;;;;7.20;2.80;;;;;;;32.89;16.71;99914.46;109456;1257;73208;-68
2023/05/13 06:42:44;;;;;;;2.40;2.10;;;;;;;32.87;16.58;99912.23;109536;1251;60952;-66
2023/05/13 06:45:22;;;;;;;3.90;2.50;;;;;;;32.83;16.71;99910.13;109414;1251;61373;-67
2023/05/13 06:47:50;;;;;;;3.00;2.00;;;;;;;32.88;16.53;99911.02;109321;1253;76265;-69
2023/05/13 06:50:17;;;;;;;3.60;1.90;;;;;;;32.89;16.42;99912.65;109587;1252;69321;-68
2023/05/13 06:52:45;;;;;;;2.90;2.30;;;;;;;32.86;16.31;99907.86;109465;1252;73038;-68
2023/05/13 06:55:12;;;;;;;4.60;1.80;;;;;;;32.89;16.54;99910.77;109465;1253;61214;-68
2023/05/13 06:57:38;;;;;;;3.70;1.90;;;;;;;33.03;16.49;99908.86;109524;1252;62693;-67
2023/05/13 07:00:09;;;;;;;3.50;1.70;;;;;;;33.10;16.34;99910.76;109507;1252;74596;-68
2023/05/13 07:02:36;;;;;;;2.10;1.70;;;;;;;33.10;16.31;99907.89;109524;1252;70308;-68
2023/05/13 07:05:04;;;;;;;5.50;2.20;;;;;;;33.08;16.13;99910.46;109516;1252;73962;-68
2023/05/13 07:07:30;;;;;;;3.90;2.20;;;;;;;33.03;16.14;99913.09;109519;1252;60975;-67
2023/05/13 07:09:58;;;;;;;5.70;2.00;;;;;;;32.93;15.83;99912.34;109511;1252;61215;-68
2023/05/13 07:12:25;;;;;;;3.40;1.90;;;;;;;32.75;16.16;99910.77;109458;1252;75888;-68
2023/05/13 07:14:51;;;;;;;3.60;1.90;;;;;;;32.67;16.57;99912.27;109502;1253;69622;-68
2023/05/13 07:17:18;;;;;;;5.20;2.00;;;;;;;32.72;16.40;99910.89;109551;1253;74485;-67
2023/05/13 07:19:46;;;;;;;3.10;1.80;;;;;;;32.93;16.32;99910.60;109429;1253;61822;-69
2023/05/13 07:22:13;;;;;;;4.50;2.10;;;;;;;33.10;16.09;99913.67;109606;1252;61183;-69
2023/05/13 07:24:40;;;;;;;4.50;1.80;;;;;;;33.10;15.56;99914.66;109545;1252;74858;-68
2023/05/13 07:27:07;;;;;;;5.50;2.00;;;;;;;33.01;15.59;99916.33;109636;1251;68558;-71
2023/05/13 07:29:34;;;;;;;4.10;1.80;;;;;;;33.07;15.89;99910.98;109502;1251;74829;-71
2023/05/13 07:32:04;;;;;;;2.20;2.00;;;;;;;33.20;15.73;99912.21;109450;1257;62186;-71
2023/05/13 07:34:31;;;;;;;2.10;1.90;;;;;;;33.10;15.59;99910.15;109542;1252;62247;-67
2023/05/13 07:36:58;;;;;;;2.00;1.90;;;;;;;32.91;15.72;99911.55;109570;1251;75151;-71
2023/05/13 07:39:25;;;;;;;1.70;1.50;;;;;;;32.86;15.62;99909.79;109521;1253;68647;-71
2023/05/13 07:41:53;;;;;;;2.70;1.80;;;;;;;32.84;15.32;99913.34;109567;1252;73106;-70
2023/05/13 07:44:20;;;;;;;5.60;2.00;;;;;;;32.70;15.61;99910.00;109515;1253;61235;-77
2023/05/13 07:46:47;;;;;;;3.40;1.70;;;;;;;32.62;15.53;99912.52;109478;1253;59000;-72
2023/05/13 07:49:14;;;;;;;4.10;1.80;;;;;;;32.43;15.35;99908.06;109578;1252;75129;-73
2023/05/13 07:51:41;;;;;;;5.40;1.70;;;;;;;32.41;15.44;99906.73;109592;1252;70900;-72
2023/05/13 07:54:08;;;;;;;3.20;1.50;;;;;;;32.63;15.67;99903.90;109520;1252;74968;-73
2023/05/13 07:56:36;;;;;;;3.80;1.70;;;;;;;32.99;15.61;99904.19;109360;1252;62314;-79
2023/05/13 07:59:03;;;;;;;3.60;2.00;;;;;;;33.19;15.54;99904.16;109475;1252;61204;-68
2023/05/13 08:01:30;;;;;;;7.30;1.80;;;;;;;33.26;15.76;99896.28;109539;1253;75689;-73
2023/05/13 08:03:57;;;;;;;1.60;1.50;;;;;;;33.30;15.00;99907.51;109372;1251;69092;-71
2023/05/13 08:06:24;;;;;;;4.00;1.90;;;;;;;32.98;14.93;99905.61;109516;1252;74050;-66
2023/05/13 08:08:51;;;;;;;3.80;2.00;;;;;;;32.66;15.75;99905.08;109507;1253;59503;-71
2023/05/13 08:11:18;;;;;;;4.00;1.80;;;;;;;32.53;16.35;99903.45;109569;1252;62624;-70
2023/05/13 08:13:45;;;;;;;4.50;2.00;;;;;;;32.47;15.98;99908.23;109608;1251;75071;-68
2023/05/13 08:16:12;;;;;;;4.20;2.20;;;;;;;32.10;16.18;99914.27;109593;1251;69020;-72
2023/05/13 08:18:38;;;;;;;3.30;1.80;;;;;;;31.51;16.41;99906.38;109529;1257;74739;-68
2023/05/13 08:21:05;;;;;;;4.30;2.00;;;;;;;31.13;17.02;99914.03;109518;1252;59381;-70
2023/05/13 08:23:34;;;;;;;5.00;2.10;;;;;;;31.08;17.15;99908.97;109598;1251;62056;-72
2023/05/13 08:26:11;;;;;;;2.30;2.00;;;;;;;31.13;17.15;99907.48;109467;1252;74776;-74
2023/05/13 08:28:38;;;;;;;2.40;2.10;;;;;;;31.20;17.13;99904.05;109541;1253;69032;-71
2023/05/13 08:31:05;;;;;;;4.60;1.70;;;;;;;31.25;17.21;99896.00;109564;1252;73760;-73
2023/05/13 08:33:32;;;;;;;5.60;2.00;;;;;;;31.41;17.17;99893.59;109545;1251;62485;-72
2023/05/13 08:35:59;;;;;;;4.40;1.90;;;;;;;31.70;16.98;99892.98;109558;1252;62367;-73
2023/05/13 08:38:26;;;;;;;5.70;2.10;;;;;;;31.61;16.85;99892.55;109556;1252;75736;-71
2023/05/13 08:40:52;;;;;;;3.20;1.50;;;;;;;31.42;17.19;99892.73;109579;1252;68803;-73
2023/05/13 08:43:19;;;;;;;3.50;1.70;;;;;;;31.58;16.72;99897.15;109555;1253;73552;-68
2023/05/13 08:45:46;;;;;;;3.90;1.50;;;;;;;31.41;16.47;99894.91;109380;1253;59174;-70
2023/05/13 08:48:14;;;;;;;2.90;1.90;;;;;;;31.23;16.95;99901.87;109547;1252;61769;-73
2023/05/13 08:50:41;;;;;;;2.90;1.80;;;;;;;30.81;16.94;99896.33;109553;1252;76112;-74
2023/05/13 08:53:10;;;;;;;1.40;1.30;;;;;;;30.10;17.01;99900.44;109501;1253;69683;-75
2023/05/13 08:55:40;;;;;;;4.00;1.70;;;;;;;29.43;17.88;99900.52;109185;1253;74722;-69
2023/05/13 08:58:07;;;;;;;3.30;1.50;;;;;;;28.63;18.33;99896.08;109505;1253;61303;-71
2023/05/13 09:00:33;;;;;;;5.50;1.90;;;;;;;27.80;18.73;99902.04;109596;1253;63083;-75
2023/05/13 09:03:00;;;;;;;2.50;1.50;;;;;;;27.05;19.47;99905.66;109575;1253;76155;-75
2023/05/13 09:05:27;;;;;;;5.40;1.50;;;;;;;26.35;20.08;99903.42;109497;1253;70028;-71
2023/05/13 09:07:54;;;;;;;8.30;2.00;;;;;;;26.45;20.59;99900.17;109340;1252;75099;-71
2023/05/13 09:10:21;;;;;;;5.70;2.10;;;;;;;27.24;20.26;99888.59;109373;1252;61244;-73
2023/05/13 09:12:48;;;;;;;2.80;1.70;;;;;;;28.10;19.83;99884.66;109523;1253;60883;-71
2023/05/13 09:15:19;;;;;;;2.90;1.80;;;;;;;28.81;18.96;99878.67;109563;1253;73765;-71
2023/05/13 09:17:54;;;;;;;2.40;1.50;;;;;;;29.03;18.92;99874.54;109565;1251;68599;-72
2023/05/13 09:20:21;;;;;;;2.60;1.70;;;;;;;28.80;18.95;99868.13;109595;1253;74766;-71
2023/05/13 09:22:49;;;;;;;11.00;1.80;;;;;;;28.55;19.38;99871.80;109434;1253;62543;-73
2023/05/13 09:25:17;;;;;;;2.50;1.50;;;;;;;28.67;18.74;99869.04;109458;1252;59857;-72
2023/05/13 09:27:50;;;;;;;3.80;1.20;;;;;;;28.88;18.57;99868.41;109403;1252;75993;-74
2023/05/13 09:30:19;;;;;;;4.10;1.50;;;;;;;28.89;17.99;99870.55;109446;1253;69935;-72
2023/05/13 09:33:07;;;;;;;1.20;1.00;;;;;;;28.19;17.69;99868.73;109272;1254;74944;-72
2023/05/13 09:35:52;;;;;;;2.10;1.20;;;;;;;27.23;18.49;99875.48;109134;1251;62158;-74
2023/05/13 09:38:20;;;;;;;3.00;1.60;;;;;;;27.02;19.06;99870.17;109509;1253;61168;-72
2023/05/13 09:40:55;;;;;;;4.00;1.60;;;;;;;27.50;18.95;99871.83;109442;1252;74944;-72
2023/05/13 09:43:23;;;;;;;2.10;1.20;;;;;;;28.25;18.45;99858.30;109317;1253;69779;-74
2023/05/13 09:45:54;;;;;;;4.10;1.40;;;;;;;29.05;17.93;99853.98;109515;1253;74740;-73
2023/05/13 09:48:22;;;;;;;3.70;1.30;;;;;;;29.68;17.32;99856.89;109512;1253;61293;-72
2023/05/13 09:50:49;;;;;;;1.50;1.20;;;;;;;30.09;16.90;99855.68;109549;1253;62654;-73
2023/05/13 09:53:16;;;;;;;1.40;0.90;;;;;;;30.02;17.00;99859.46;109625;1251;73568;-70
2023/05/13 09:55:47;;;;;;;2.70;1.20;;;;;;;29.71;16.94;99856.82;109566;1253;68132;-72
2023/05/13 09:58:13;;;;;;;3.50;1.40;;;;;;;29.49;17.45;99852.59;109536;1251;74269;-71
2023/05/13 10:00:40;;;;;;;4.10;1.10;;;;;;;29.41;17.63;99849.68;109627;1252;58886;-70
2023/05/13 10:03:08;;;;;;;3.10;1.10;;;;;;;29.42;18.27;99845.52;109529;1253;61128;-70
2023/05/13 10:05:35;;;;;;;1.00;1.00;;;;;;;29.64;17.85;99838.13;109551;1253;74922;-71
2023/05/13 10:08:02;;;;;;;2.40;1.10;;;;;;;29.62;17.41;99837.46;109531;1253;69172;-73
2023/05/13 10:10:30;;;;;;;1.10;1.00;;;;;;;29.47;17.22;99846.46;109542;1253;74773;-72
2023/05/13 10:12:58;;;;;;;1.80;1.20;;;;;;;29.27;17.31;99841.56;109575;1252;61271;-70
2023/05/13 10:15:25;;;;;;;1.80;1.60;;;;;;;29.08;17.62;99838.09;109603;1251;61245;-72
2023/05/13 10:17:52;;;;;;;2.50;1.50;;;;;;;28.75;18.18;99839.33;109344;1253;75800;-70
2023/05/13 10:20:19;;;;;;;2.50;1.30;;;;;;;28.10;18.78;99837.41;109475;1253;69454;-73
2023/05/13 10:22:46;;;;;;;1.60;1.50;;;;;;;27.41;19.25;99844.94;109408;1252;73852;-72
2023/05/13 10:25:13;;;;;;;1.40;1.20;;;;;;;26.90;19.67;99832.63;109382;1253;62857;-71
2023/05/13 10:27:39;;;;;;;2.70;1.50;;;;;;;26.54;20.46;99825.78;109529;1252;60376;-71
2023/05/13 10:30:09;;;;;;;2.60;1.20;;;;;;;26.31;20.77;99832.44;109360;1253;75248;-70
2023/05/13 10:32:37;;;;;;;2.10;1.20;;;;;;;26.15;20.75;99831.79;109385;1253;68522;-71
2023/05/13 10:35:11;;;;;;;2.10;1.20;;;;;;;26.02;20.50;99825.47;109506;1252;72819;-71
2023/05/13 10:37:53;;;;;;;1.90;1.00;;;;;;;25.87;20.74;99829.77;109262;1253;61630;-73
2023/05/13 10:40:45;;;;;;;2.70;1.30;;;;;;;25.61;20.80;99819.17;109553;1253;61361;-72
2023/05/13 10:43:22;;;;;;;1.50;1.40;;;;;;;25.36;21.80;99828.02;109570;1253;74957;-73
2023/05/13 10:46:05;;;;;;;2.70;1.20;;;;;;;25.28;21.31;99831.14;109425;1253;68357;-72
2023/05/13 10:48:40;;;;;;;1.90;1.00;;;;;;;25.14;21.13;99832.74;109490;1252;72802;-74
2023/05/13 10:51:07;;;;;;;3.40;1.10;;;;;;;24.81;21.00;99825.17;109553;1253;62466;-72
2023/05/13 10:53:45;;;;;;;2.90;1.30;;;;;;;24.52;21.50;99823.33;109558;1253;61384;-72
2023/05/13 10:56:12;;;;;;;3.20;1.30;;;;;;;24.25;22.04;99818.57;109540;1252;75934;-71
2023/05/13 10:58:39;;;;;;;1.40;1.30;;;;;;;24.12;22.34;99811.57;109415;1258;70202;-70
2023/05/13 11:01:29;;;;;;;3.30;1.40;;;;;;;24.15;22.37;99808.73;109520;1253;75022;-71
2023/05/13 11:03:58;;;;;;;3.70;1.50;;;;;;;24.20;22.38;99809.91;109471;1256;62527;-70
2023/05/13 11:06:29;;;;;;;1.80;1.40;;;;;;;24.11;22.58;99812.00;109504;1253;62283;-72
2023/05/13 11:08:56;;;;;;;2.50;1.50;;;;;;;23.87;22.58;99813.57;109552;1253;75801;-71
2023/05/13 11:11:31;;;;;;;2.30;1.70;;;;;;;23.56;23.20;99816.91;109544;1253;66902;-71
2023/05/13 11:13:58;;;;;;;4.70;1.60;;;;;;;23.29;23.50;99820.55;109532;1253;74563;-71
2023/05/13 11:16:25;;;;;;;2.00;1.40;;;;;;;23.12;23.73;99821.92;109499;1253;61436;-71
2023/05/13 11:18:52;;;;;;;2.00;1.80;;;;;;;22.94;24.00;99818.70;109341;1258;62454;-70
2023/05/13 11:21:32;;;;;;;2.40;1.10;;;;;;;22.80;24.06;99818.64;109522;1253;75749;-72
2023/05/13 11:24:02;;;;;;;3.40;1.40;;;;;;;22.67;24.18;99817.86;109527;1253;70078;-72
2023/05/13 11:26:46;;;;;;;3.90;1.70;;;;;;;22.63;24.59;99815.81;109539;1253;74745;-70